Time;durP1;ratioP1;P1;durP2;ratioP2;P2;SDS_P1;SDS_P2;PMS_P1;PMS_P2;Temp;Humidity;BMP_temperature;BMP_pressure;BME280_temperature;BME280_humidity;BME280_pressure;Samples;Min_cycle;Max_cycle;Signal;HPM_P1;HPM_P2
2023/12/11 00:02:17;;;;;;;0.05;0.05;;;23.00;49.80;;;;;;5070947;28;20223;-49
2023/12/11 00:04:48;;;;;;;0.00;0.00;;;23.00;50.00;;;;;;5071823;28;20654;-50
2023/12/11 00:07:19;;;;;;;0.00;0.00;;;23.00;50.00;;;;;;5071832;28;20199;-49
2023/12/11 00:09:51;;;;;;;0.00;0.00;;;23.00;50.00;;;;;;5069617;28;20221;-47
2023/12/11 00:12:22;;;;;;;0.10;0.10;;;23.00;49.90;;;;;;5058731;28;20218;-49
2023/12/11 00:14:53;;;;;;;0.00;0.00;;;23.00;49.90;;;;;;5053368;28;20188;-49
2023/12/11 00:17:23;;;;;;;0.00;0.00;;;23.10;49.90;;;;;;5051292;28;20354;-48
2023/12/11 00:19:54;;;;;;;0.00;0.00;;;23.10;49.80;;;;;;5051123;28;20199;-50
2023/12/11 00:22:25;;;;;;;0.00;0.00;;;23.10;49.80;;;;;;5051981;28;20584;-48
2023/12/11 00:24:57;;;;;;;0.00;0.00;;;23.10;49.80;;;;;;5071293;28;20650;-50
2023/12/11 00:27:28;;;;;;;0.00;0.00;;;23.10;49.70;;;;;;5071242;28;20557;-49
2023/12/11 00:30:00;;;;;;;0.00;0.00;;;23.20;49.70;;;;;;5071369;28;20223;-49
2023/12/11 00:32:31;;;;;;;0.00;0.00;;;23.20;49.70;;;;;;5071637;28;20697;-48
2023/12/11 00:35:02;;;;;;;0.00;0.00;;;23.20;49.50;;;;;;5071120;28;20194;-48
2023/12/11 00:37:32;;;;;;;0.00;0.00;;;23.30;49.50;;;;;;5071832;28;20203;-49
2023/12/11 00:40:06;;;;;;;0.00;0.00;;;23.30;49.40;;;;;;5071580;28;20200;-50
2023/12/11 00:42:36;;;;;;;0.10;0.10;;;23.30;49.30;;;;;;5071418;28;20211;-49
2023/12/11 00:45:08;;;;;;;0.00;0.00;;;23.30;49.30;;;;;;5071070;28;20195;-50
2023/12/11 00:47:38;;;;;;;0.00;0.00;;;23.40;49.20;;;;;;5071354;28;20198;-49
2023/12/11 00:50:10;;;;;;;0.00;0.00;;;23.40;49.00;;;;;;5070885;28;20221;-49
2023/12/11 00:52:40;;;;;;;0.00;0.00;;;23.40;48.90;;;;;;5075046;28;20697;-48
2023/12/11 00:55:13;;;;;;;0.03;0.03;;;23.50;48.80;;;;;;5075290;28;20208;-49
2023/12/11 00:57:44;;;;;;;0.10;0.10;;;23.50;48.80;;;;;;5075007;28;20201;-49
2023/12/11 01:00:15;;;;;;;0.00;0.00;;;23.50;48.70;;;;;;5074667;28;20209;-50
2023/12/11 01:02:46;;;;;;;0.00;0.00;;;23.50;48.70;;;;;;5074565;28;20217;-48
2023/12/11 01:05:17;;;;;;;0.00;0.00;;;23.50;48.70;;;;;;5074545;28;20198;-48
2023/12/11 01:07:47;;;;;;;0.00;0.00;;;23.50;48.80;;;;;;5074785;28;20194;-50
2023/12/11 01:10:20;;;;;;;0.00;0.00;;;23.50;48.70;;;;;;5074717;28;20222;-50
2023/12/11 01:12:51;;;;;;;0.00;0.00;;;23.60;48.80;;;;;;5074803;28;20241;-49
2023/12/11 01:15:22;;;;;;;0.00;0.00;;;23.60;48.80;;;;;;5074656;28;20539;-50
2023/12/11 01:17:52;;;;;;;0.00;0.00;;;23.60;48.80;;;;;;5074653;28;20692;-50
2023/12/11 01:20:23;;;;;;;0.00;0.00;;;23.70;48.80;;;;;;5074652;28;20203;-50
2023/12/11 01:22:54;;;;;;;0.00;0.00;;;23.70;48.80;;;;;;5072547;28;20211;-48
2023/12/11 01:25:26;;;;;;;0.05;0.05;;;23.70;48.60;;;;;;5074234;28;20655;-48
2023/12/11 01:27:57;;;;;;;0.00;0.00;;;23.70;49.20;;;;;;5074342;28;20577;-47
2023/12/11 01:30:28;;;;;;;0.00;0.00;;;23.70;48.60;;;;;;5071140;28;20222;-48
2023/12/11 01:32:58;;;;;;;0.00;0.00;;;23.80;48.70;;;;;;5074079;28;20215;-48
2023/12/11 01:35:29;;;;;;;0.00;0.00;;;23.80;48.70;;;;;;5074360;28;20659;-49
2023/12/11 01:38:00;;;;;;;0.00;0.00;;;23.80;48.70;;;;;;5073180;22;20227;-49
2023/12/11 01:40:32;;;;;;;0.00;0.00;;;23.90;48.70;;;;;;5053914;28;20203;-55
2023/12/11 01:43:15;;;;;;;0.10;0.10;;;23.90;48.60;;;;;;5054055;28;20215;-54
2023/12/11 01:45:48;;;;;;;0.00;0.00;;;23.90;48.40;;;;;;5053780;28;20357;-55
2023/12/11 01:48:19;;;;;;;0.00;0.00;;;23.90;48.50;;;;;;5053524;28;20199;-56
2023/12/11 01:50:49;;;;;;;0.08;0.08;;;23.90;48.40;;;;;;5053362;28;20225;-56
2023/12/11 01:53:20;;;;;;;0.00;0.00;;;23.90;48.40;;;;;;5053753;28;20215;-50
2023/12/11 01:55:53;;;;;;;0.00;0.00;;;24.00;48.30;;;;;;5053666;28;20199;-56
2023/12/11 01:58:25;;;;;;;0.00;0.00;;;24.00;48.50;;;;;;5053949;28;20192;-56
2023/12/11 02:00:56;;;;;;;0.00;0.00;;;24.00;48.60;;;;;;5053699;28;20199;-54
2023/12/11 02:03:27;;;;;;;0.10;0.10;;;24.00;48.70;;;;;;5052409;28;20501;-56
2023/12/11 02:05:57;;;;;;;0.00;0.00;;;24.00;48.70;;;;;;5049120;28;20200;-54
2023/12/11 02:08:28;;;;;;;0.00;0.00;;;24.00;48.70;;;;;;5033592;28;20232;-54
2023/12/11 02:11:01;;;;;;;0.00;0.00;;;24.00;48.60;;;;;;5033953;28;20700;-49
2023/12/11 02:13:34;;;;;;;0.00;0.00;;;24.10;48.70;;;;;;5053720;28;20238;-53
2023/12/11 02:16:04;;;;;;;0.00;0.00;;;24.10;48.60;;;;;;5053821;28;20191;-48
2023/12/11 02:18:35;;;;;;;0.00;0.00;;;24.10;48.40;;;;;;5044120;28;20679;-51
2023/12/11 02:21:06;;;;;;;0.00;0.00;;;24.20;48.50;;;;;;5033419;28;20560;-53
2023/12/11 02:23:44;;;;;;;0.00;0.00;;;24.20;48.60;;;;;;5044213;28;20215;-52
2023/12/11 02:26:18;;;;;;;0.00;0.00;;;24.30;48.50;;;;;;5053423;28;20191;-52
2023/12/11 02:28:49;;;;;;;0.00;0.00;;;24.30;48.30;;;;;;5053390;28;20250;-54
2023/12/11 02:31:20;;;;;;;0.00;0.00;;;24.30;48.40;;;;;;5053277;28;20234;-52
2023/12/11 02:33:51;;;;;;;0.00;0.00;;;24.30;48.30;;;;;;5053267;28;20229;-53
2023/12/11 02:38:51;;;;;;;0.00;0.00;;;24.40;48.10;;;;;;5071351;28;20211;-53
2023/12/11 02:41:23;;;;;;;0.00;0.00;;;24.40;48.20;;;;;;5072719;28;20198;-54
2023/12/11 02:43:54;;;;;;;0.00;0.00;;;24.50;48.20;;;;;;5072843;28;20228;-53
2023/12/11 02:46:25;;;;;;;0.00;0.00;;;24.50;48.20;;;;;;5073031;28;20205;-53
2023/12/11 02:48:55;;;;;;;0.00;0.00;;;24.50;48.20;;;;;;5073203;28;20198;-53
2023/12/11 02:51:26;;;;;;;0.00;0.00;;;24.50;48.10;;;;;;5073035;28;20611;-53
2023/12/11 02:53:57;;;;;;;0.00;0.00;;;24.50;48.20;;;;;;5072876;28;20214;-52
2023/12/11 02:56:29;;;;;;;0.00;0.00;;;24.60;48.10;;;;;;5072701;28;20195;-55
2023/12/11 02:59:00;;;;;;;0.00;0.00;;;24.60;48.20;;;;;;5072633;28;20278;-50
2023/12/11 03:01:31;;;;;;;0.00;0.00;;;24.70;48.10;;;;;;5072573;28;20195;-55
2023/12/11 03:04:01;;;;;;;0.00;0.00;;;24.70;47.90;;;;;;5072268;28;20582;-51
2023/12/11 03:06:32;;;;;;;0.10;0.10;;;24.70;47.80;;;;;;5072276;28;20190;-53
2023/12/11 03:09:03;;;;;;;0.00;0.00;;;24.80;47.90;;;;;;5072448;28;20198;-54
2023/12/11 03:11:36;;;;;;;0.00;0.00;;;24.80;47.90;;;;;;5072431;28;20233;-54
2023/12/11 03:14:06;;;;;;;0.00;0.00;;;24.90;47.80;;;;;;5071902;28;20201;-52
2023/12/11 03:16:37;;;;;;;0.00;0.00;;;24.90;47.80;;;;;;5072219;28;20194;-55
2023/12/11 03:19:08;;;;;;;0.00;0.00;;;24.90;47.80;;;;;;5072262;28;20571;-51
2023/12/11 03:21:38;;;;;;;0.10;0.10;;;25.00;47.80;;;;;;5063935;28;20557;-54
2023/12/11 03:24:09;;;;;;;0.00;0.00;;;25.00;47.90;;;;;;5067747;28;20203;-56
2023/12/11 03:26:42;;;;;;;0.00;0.00;;;25.10;48.00;;;;;;5072565;28;20201;-50
2023/12/11 03:29:13;;;;;;;0.00;0.00;;;25.10;47.90;;;;;;5072410;28;20206;-52
2023/12/11 03:31:43;;;;;;;0.00;0.00;;;25.10;47.70;;;;;;5071839;28;20227;-54
2023/12/11 03:34:14;;;;;;;0.00;0.00;;;25.10;47.70;;;;;;5071426;28;20194;-50
2023/12/11 03:36:45;;;;;;;0.00;0.00;;;25.20;47.80;;;;;;5066752;28;20540;-52
2023/12/11 03:39:15;;;;;;;0.00;0.00;;;25.20;47.40;;;;;;5071557;28;20214;-54
2023/12/11 03:41:49;;;;;;;0.00;0.00;;;25.20;47.30;;;;;;5071366;28;20205;-54
2023/12/11 03:44:20;;;;;;;0.00;0.00;;;25.30;47.40;;;;;;5071923;28;20674;-53
2023/12/11 03:46:51;;;;;;;0.00;0.00;;;25.30;47.50;;;;;;5071945;28;20194;-52
2023/12/11 03:49:22;;;;;;;0.00;0.00;;;25.40;47.70;;;;;;5071895;28;20201;-55
2023/12/11 03:51:52;;;;;;;0.00;0.00;;;25.40;47.60;;;;;;5072269;28;20253;-52
2023/12/11 03:54:23;;;;;;;0.00;0.00;;;25.50;47.50;;;;;;5071823;28;20203;-50
2023/12/11 03:56:56;;;;;;;0.00;0.00;;;25.50;47.20;;;;;;5071875;28;20201;-52
2023/12/11 03:59:27;;;;;;;0.00;0.00;;;25.60;47.10;;;;;;5071383;28;20187;-48
2023/12/11 04:01:58;;;;;;;0.00;0.00;;;25.60;47.20;;;;;;5071439;28;20590;-50
2023/12/11 04:04:29;;;;;;;0.00;0.00;;;25.70;47.20;;;;;;5071752;28;20556;-53
2023/12/11 04:06:59;;;;;;;0.00;0.00;;;25.70;47.10;;;;;;5071418;28;20204;-51
2023/12/11 04:09:30;;;;;;;0.00;0.00;;;25.80;46.90;;;;;;5071518;28;20198;-49
2023/12/11 04:12:03;;;;;;;0.00;0.00;;;25.80;46.90;;;;;;5071264;28;20230;-52
2023/12/11 04:14:33;;;;;;;0.00;0.00;;;25.90;46.90;;;;;;5071105;28;20193;-50
2023/12/11 04:17:04;;;;;;;0.00;0.00;;;25.90;46.80;;;;;;5071300;28;20195;-49
2023/12/11 04:19:35;;;;;;;0.00;0.00;;;25.90;46.90;;;;;;5071554;28;20625;-49
2023/12/11 04:22:06;;;;;;;0.00;0.00;;;26.00;46.90;;;;;;5072080;28;20215;-51
2023/12/11 04:24:37;;;;;;;0.00;0.00;;;26.00;46.90;;;;;;5059166;28;20195;-50
2023/12/11 04:27:09;;;;;;;0.00;0.00;;;26.10;46.90;;;;;;5070744;28;20195;-53
2023/12/11 04:29:40;;;;;;;0.00;0.00;;;26.10;47.10;;;;;;5070932;28;20199;-54
2023/12/11 04:32:11;;;;;;;0.00;0.00;;;26.10;47.10;;;;;;5070809;28;20599;-50
2023/12/11 04:34:42;;;;;;;0.00;0.00;;;26.20;47.00;;;;;;5071206;28;20202;-48
2023/12/11 04:37:12;;;;;;;0.00;0.00;;;26.20;46.70;;;;;;5071813;28;20211;-52
2023/12/11 04:39:43;;;;;;;0.00;0.00;;;26.20;46.70;;;;;;5071105;28;20194;-49
2023/12/11 04:42:16;;;;;;;0.00;0.00;;;26.30;46.70;;;;;;5070974;28;20241;-48
2023/12/11 04:44:46;;;;;;;0.00;0.00;;;26.30;46.70;;;;;;5071123;28;20206;-53
2023/12/11 04:47:17;;;;;;;0.00;0.00;;;26.40;46.70;;;;;;5070786;28;20221;-49
2023/12/11 04:49:48;;;;;;;0.00;0.00;;;26.40;46.60;;;;;;5071065;28;20194;-51
2023/12/11 04:52:19;;;;;;;0.00;0.00;;;26.40;46.40;;;;;;5070867;28;20227;-51
2023/12/11 04:54:49;;;;;;;0.00;0.00;;;26.50;46.20;;;;;;5071430;28;20195;-53
2023/12/11 04:57:22;;;;;;;0.00;0.00;;;26.60;46.20;;;;;;5071388;28;20199;-51
2023/12/11 04:59:53;;;;;;;0.00;0.00;;;26.60;45.80;;;;;;5071024;28;20626;-51
2023/12/11 05:02:24;;;;;;;0.00;0.00;;;26.60;45.80;;;;;;5070559;28;20221;-50
2023/12/11 05:04:56;;;;;;;0.00;0.00;;;26.70;45.70;;;;;;5071015;28;20557;-55
2023/12/11 05:07:27;;;;;;;0.00;0.00;;;26.70;45.70;;;;;;5071179;28;20202;-49
2023/12/11 05:09:57;;;;;;;0.00;0.00;;;26.80;45.60;;;;;;5070701;28;20195;-51
2023/12/11 05:12:30;;;;;;;0.00;0.00;;;26.70;45.60;;;;;;5070151;28;20223;-50
2023/12/11 05:15:01;;;;;;;0.00;0.00;;;26.80;45.60;;;;;;5070784;28;20199;-49
2023/12/11 05:17:32;;;;;;;0.00;0.00;;;26.80;45.70;;;;;;5070792;28;20199;-50
2023/12/11 05:20:03;;;;;;;0.00;0.00;;;26.90;45.80;;;;;;5070318;28;20195;-48
2023/12/11 05:22:34;;;;;;;0.00;0.00;;;26.90;45.80;;;;;;5070196;28;20217;-54
2023/12/11 05:25:04;;;;;;;0.00;0.00;;;26.90;45.80;;;;;;5070766;28;20194;-49
2023/12/11 05:27:37;;;;;;;0.00;0.00;;;26.90;45.90;;;;;;5071028;28;20199;-50
2023/12/11 05:30:09;;;;;;;0.00;0.00;;;27.00;45.70;;;;;;5052627;28;20202;-50
2023/12/11 05:32:41;;;;;;;0.00;0.00;;;27.00;45.60;;;;;;5050383;28;20575;-50
2023/12/11 05:35:12;;;;;;;0.00;0.00;;;27.00;45.40;;;;;;5050615;28;20565;-50
2023/12/11 05:37:42;;;;;;;0.00;0.00;;;27.00;45.50;;;;;;5055760;28;20207;-50
2023/12/11 05:40:14;;;;;;;0.00;0.00;;;27.10;45.50;;;;;;5074398;28;20195;-49
2023/12/11 05:42:46;;;;;;;0.00;0.00;;;27.10;45.40;;;;;;5071257;28;20217;-50
2023/12/11 05:45:17;;;;;;;0.00;0.00;;;27.10;45.30;;;;;;5074165;28;20217;-50
2023/12/11 05:47:48;;;;;;;0.00;0.00;;;27.10;45.10;;;;;;5074243;28;20195;-56
2023/12/11 05:50:19;;;;;;;0.00;0.00;;;27.20;45.20;;;;;;5074260;28;20611;-53
2023/12/11 05:52:49;;;;;;;0.00;0.00;;;27.20;45.30;;;;;;5073865;28;20231;-49
2023/12/11 05:55:20;;;;;;;0.00;0.00;;;27.20;45.20;;;;;;5073936;28;20347;-48
2023/12/11 05:57:53;;;;;;;0.00;0.00;;;27.20;45.20;;;;;;5074056;28;20195;-50
2023/12/11 06:00:24;;;;;;;0.00;0.00;;;27.30;45.20;;;;;;5073602;28;20199;-47
2023/12/11 06:02:55;;;;;;;0.00;0.00;;;27.30;45.20;;;;;;5073027;28;20272;-53
2023/12/11 06:05:26;;;;;;;0.00;0.00;;;27.30;45.20;;;;;;5073722;28;20205;-53
2023/12/11 06:07:56;;;;;;;0.00;0.00;;;27.30;45.20;;;;;;5073110;28;20191;-49
2023/12/11 06:10:27;;;;;;;0.00;0.00;;;27.30;45.20;;;;;;5073390;28;20191;-47
2023/12/11 06:13:00;;;;;;;0.00;0.00;;;27.30;44.90;;;;;;5073173;28;20230;-53
2023/12/11 06:15:30;;;;;;;0.00;0.00;;;27.40;45.00;;;;;;5073638;28;20209;-51
2023/12/11 06:18:01;;;;;;;0.00;0.00;;;27.30;45.10;;;;;;5073509;28;20234;-51
2023/12/11 06:20:32;;;;;;;0.00;0.00;;;27.40;44.60;;;;;;5073666;28;20232;-51
2023/12/11 06:23:03;;;;;;;0.00;0.00;;;27.40;44.70;;;;;;5067034;28;20221;-49
2023/12/11 06:25:33;;;;;;;0.00;0.00;;;27.40;44.80;;;;;;5052847;28;20553;-51
2023/12/11 06:28:06;;;;;;;0.00;0.00;;;27.40;44.80;;;;;;5052890;28;20203;-50
2023/12/11 06:30:37;;;;;;;0.00;0.00;;;27.40;44.70;;;;;;5053192;28;20204;-50
2023/12/11 06:33:08;;;;;;;0.00;0.00;;;27.40;44.60;;;;;;5053201;28;20231;-51
2023/12/11 06:35:38;;;;;;;0.00;0.00;;;27.40;44.40;;;;;;5052915;28;20206;-47
2023/12/11 06:38:09;;;;;;;0.00;0.00;;;27.50;44.10;;;;;;5053363;28;20207;-50
2023/12/11 06:40:40;;;;;;;0.00;0.00;;;27.50;44.10;;;;;;5053286;28;20195;-47
2023/12/11 06:43:13;;;;;;;0.00;0.00;;;27.50;44.10;;;;;;5053100;28;20298;-49
2023/12/11 06:45:44;;;;;;;0.00;0.00;;;27.50;44.10;;;;;;5052724;28;20202;-52
2023/12/11 06:48:14;;;;;;;0.00;0.00;;;27.60;44.20;;;;;;5051333;28;20313;-50
2023/12/11 06:50:45;;;;;;;0.00;0.00;;;27.50;43.90;;;;;;5052876;28;20566;-51
2023/12/11 06:53:16;;;;;;;0.00;0.00;;;27.60;43.70;;;;;;5060825;28;20284;-49
2023/12/11 06:55:47;;;;;;;0.00;0.00;;;27.60;43.60;;;;;;5072898;28;20199;-49
2023/12/11 06:58:19;;;;;;;0.00;0.00;;;27.60;43.60;;;;;;5072898;28;20647;-53
2023/12/11 07:00:50;;;;;;;0.00;0.00;;;27.50;43.50;;;;;;5072494;28;20191;-47
2023/12/11 07:03:21;;;;;;;0.00;0.00;;;27.60;43.40;;;;;;5072099;28;20268;-47
2023/12/11 07:05:52;;;;;;;0.00;0.00;;;27.60;43.50;;;;;;5072648;28;20199;-53
2023/12/11 07:08:23;;;;;;;0.00;0.00;;;27.60;43.50;;;;;;5072790;28;20217;-50
2023/12/11 07:10:53;;;;;;;0.00;0.00;;;27.60;43.40;;;;;;5072475;28;20198;-50
2023/12/11 07:13:26;;;;;;;0.00;0.00;;;27.60;43.50;;;;;;5072507;28;20229;-49
2023/12/11 07:15:57;;;;;;;0.00;0.00;;;27.60;43.50;;;;;;5072160;28;20205;-50
2023/12/11 07:18:27;;;;;;;0.00;0.00;;;27.50;43.40;;;;;;5071082;28;20194;-46
2023/12/11 07:20:58;;;;;;;0.00;0.00;;;27.50;43.40;;;;;;5072425;28;20658;-49
2023/12/11 07:23:29;;;;;;;0.00;0.00;;;27.50;43.30;;;;;;5072126;28;20249;-50
2023/12/11 07:26:00;;;;;;;0.00;0.00;;;27.50;43.20;;;;;;5065069;28;20670;-47
2023/12/11 07:28:32;;;;;;;0.00;0.00;;;27.50;43.00;;;;;;5052168;28;20199;-49
2023/12/11 07:31:04;;;;;;;0.00;0.00;;;27.50;42.80;;;;;;5052045;28;20192;-46
2023/12/11 07:33:34;;;;;;;0.00;0.00;;;27.40;42.50;;;;;;5051360;28;20604;-48
2023/12/11 07:36:06;;;;;;;0.00;0.00;;;27.40;42.10;;;;;;5051877;28;20666;-46
2023/12/11 07:38:37;;;;;;;0.00;0.00;;;27.40;41.80;;;;;;5056116;28;20260;-50
2023/12/11 07:41:08;;;;;;;0.00;0.00;;;27.40;41.40;;;;;;5051941;28;20191;-55
2023/12/11 07:43:40;;;;;;;0.00;0.00;;;27.30;41.20;;;;;;5052352;28;20227;-55
2023/12/11 07:46:17;;;;;;;0.00;0.00;;;27.30;41.00;;;;;;5051711;28;20419;-55
2023/12/11 07:48:48;;;;;;;0.00;0.00;;;27.30;40.90;;;;;;5052555;28;20199;-52
2023/12/11 07:51:23;;;;;;;0.00;0.00;;;27.20;40.80;;;;;;5070186;28;20195;-56
2023/12/11 07:53:55;;;;;;;0.00;0.00;;;27.20;40.80;;;;;;5071538;28;20230;-55
2023/12/11 07:56:27;;;;;;;0.00;0.00;;;27.20;40.90;;;;;;5071568;28;20198;-52
2023/12/11 07:58:59;;;;;;;0.00;0.00;;;27.10;40.70;;;;;;5071970;28;20197;-53
2023/12/11 08:01:33;;;;;;;0.00;0.00;;;27.10;40.70;;;;;;5070866;28;20198;-52
2023/12/11 08:04:06;;;;;;;0.00;0.00;;;27.10;40.70;;;;;;5071505;28;20223;-55
2023/12/11 08:06:42;;;;;;;0.00;0.00;;;27.00;40.80;;;;;;5060650;28;20206;-54
2023/12/11 08:09:14;;;;;;;0.00;0.00;;;27.00;40.70;;;;;;5069905;28;20542;-52
2023/12/11 08:11:46;;;;;;;0.00;0.00;;;27.00;40.70;;;;;;5069964;28;20539;-56
2023/12/11 08:14:18;;;;;;;0.00;0.00;;;26.90;40.70;;;;;;5070746;28;20194;-53
2023/12/11 08:16:50;;;;;;;0.00;0.00;;;26.90;40.60;;;;;;5066084;28;20573;-46
2023/12/11 08:19:20;;;;;;;0.00;0.00;;;26.90;40.60;;;;;;5070998;28;20278;-45
2023/12/11 08:21:51;;;;;;;0.00;0.00;;;26.90;40.50;;;;;;5071065;28;20205;-46
2023/12/11 08:24:22;;;;;;;0.00;0.00;;;26.80;40.40;;;;;;5070986;28;20685;-45
2023/12/11 08:26:53;;;;;;;0.00;0.00;;;26.80;40.50;;;;;;5070489;28;20582;-47
2023/12/11 08:29:26;;;;;;;0.00;0.00;;;26.80;40.60;;;;;;5069871;28;20197;-47
2023/12/11 08:31:57;;;;;;;0.00;0.00;;;26.70;40.40;;;;;;5069602;28;20561;-46
2023/12/11 08:34:27;;;;;;;0.00;0.00;;;26.70;40.60;;;;;;5070723;28;20205;-47
2023/12/11 08:36:58;;;;;;;0.00;0.00;;;26.60;40.60;;;;;;5080451;22;20193;-53
2023/12/11 08:39:29;;;;;;;0.00;0.00;;;26.70;40.70;;;;;;5069735;28;20195;-57
2023/12/11 08:42:00;;;;;;;0.00;0.00;;;26.60;40.90;;;;;;5070207;28;20201;-53
2023/12/11 08:44:32;;;;;;;0.00;0.00;;;26.60;41.00;;;;;;5070505;28;20551;-54
2023/12/11 08:47:03;;;;;;;0.00;0.00;;;26.60;41.10;;;;;;5069341;28;20228;-54
2023/12/11 08:49:34;;;;;;;0.00;0.00;;;26.50;41.00;;;;;;5070896;28;20647;-58
2023/12/11 08:52:04;;;;;;;0.00;0.00;;;26.50;40.90;;;;;;5070729;28;20222;-56
2023/12/11 08:54:35;;;;;;;0.00;0.00;;;26.50;41.00;;;;;;5044486;28;20196;-54
2023/12/11 08:57:06;;;;;;;0.00;0.00;;;26.40;41.00;;;;;;5049528;28;20219;-55
2023/12/11 08:59:39;;;;;;;0.00;0.00;;;26.40;40.90;;;;;;5050288;28;20196;-49
2023/12/11 09:02:10;;;;;;;0.00;0.00;;;26.40;41.00;;;;;;5029405;28;20684;-56
2023/12/11 09:04:40;;;;;;;0.00;0.00;;;26.30;41.00;;;;;;5030139;28;20196;-58
2023/12/11 09:07:11;;;;;;;0.00;0.00;;;26.30;40.90;;;;;;5046129;28;20202;-57
2023/12/11 09:09:42;;;;;;;0.00;0.00;;;26.30;41.00;;;;;;5049653;28;20204;-56
2023/12/11 09:12:13;;;;;;;0.00;0.00;;;26.30;41.00;;;;;;5052267;28;20581;-55
2023/12/11 09:14:46;;;;;;;0.00;0.00;;;26.20;41.00;;;;;;5053427;28;20848;-57
2023/12/11 09:17:17;;;;;;;0.00;0.00;;;26.20;40.90;;;;;;5053640;28;20201;-55
2023/12/11 09:19:47;;;;;;;0.00;0.00;;;26.20;40.90;;;;;;5053880;28;20615;-55
2023/12/11 09:22:18;;;;;;;0.00;0.00;;;26.10;41.00;;;;;;5053422;28;20211;-56
2023/12/11 09:24:49;;;;;;;0.00;0.00;;;26.10;40.90;;;;;;5035232;28;20192;-57
2023/12/11 09:27:20;;;;;;;0.00;0.00;;;26.10;41.00;;;;;;5054181;28;20195;-54
2023/12/11 09:29:52;;;;;;;0.00;0.00;;;26.00;40.80;;;;;;5053621;28;20225;-53
2023/12/11 09:32:23;;;;;;;0.00;0.00;;;26.00;40.90;;;;;;5053199;28;20215;-58
2023/12/11 09:34:54;;;;;;;0.00;0.00;;;26.00;41.00;;;;;;5050660;28;20599;-57
2023/12/11 09:37:24;;;;;;;0.00;0.00;;;26.00;40.80;;;;;;5065512;22;20231;-50
2023/12/11 09:39:55;;;;;;;0.00;0.00;;;25.90;40.70;;;;;;5053118;28;20651;-51
2023/12/11 09:42:26;;;;;;;0.00;0.00;;;25.90;40.70;;;;;;5040147;28;20217;-53
2023/12/11 09:44:59;;;;;;;0.00;0.00;;;25.90;41.40;;;;;;5053914;28;20195;-52
2023/12/11 09:47:32;;;;;;;0.00;0.00;;;25.90;40.80;;;;;;5053322;28;20665;-49
2023/12/11 09:50:04;;;;;;;0.00;0.00;;;25.80;40.70;;;;;;5053433;28;20194;-52
2023/12/11 09:52:34;;;;;;;0.00;0.00;;;25.80;40.90;;;;;;5050757;28;20246;-46
2023/12/11 09:55:05;;;;;;;0.00;0.00;;;25.80;41.00;;;;;;5052854;28;20188;-53
2023/12/11 09:57:37;;;;;;;0.00;0.00;;;25.70;40.80;;;;;;5036277;28;20203;-52
2023/12/11 10:00:12;;;;;;;0.00;0.00;;;25.70;41.00;;;;;;5039803;28;20187;-49
2023/12/11 10:02:43;;;;;;;0.00;0.00;;;25.70;41.10;;;;;;5035035;28;20678;-51
2023/12/11 10:05:24;;;;;;;0.00;0.00;;;25.60;41.00;;;;;;5053290;28;20203;-52
2023/12/11 10:07:54;;;;;;;0.00;0.00;;;25.60;41.00;;;;;;5053827;28;20191;-52
2023/12/11 10:10:26;;;;;;;0.00;0.00;;;25.60;41.00;;;;;;5050350;28;20198;-48
2023/12/11 10:12:58;;;;;;;0.00;0.00;;;25.60;41.00;;;;;;5053662;28;20699;-50
2023/12/11 10:15:31;;;;;;;0.00;0.00;;;25.50;40.90;;;;;;5050414;28;20189;-45
2023/12/11 10:18:08;;;;;;;0.00;0.00;;;25.50;40.90;;;;;;5049826;28;20199;-49
2023/12/11 10:20:39;;;;;;;0.00;0.00;;;25.50;41.10;;;;;;5053073;28;20199;-45
2023/12/11 10:23:17;;;;;;;0.00;0.00;;;25.40;41.10;;;;;;5051922;28;20223;-49
2023/12/11 10:25:49;;;;;;;0.00;0.00;;;25.40;41.00;;;;;;5051294;28;20188;-52
2023/12/11 10:28:22;;;;;;;0.00;0.00;;;25.40;41.10;;;;;;5052855;28;20199;-48
2023/12/11 10:30:55;;;;;;;0.00;0.00;;;25.30;41.20;;;;;;5053579;28;20192;-49
2023/12/11 10:33:30;;;;;;;0.00;0.00;;;25.30;41.20;;;;;;5052399;28;20227;-49
2023/12/11 10:36:12;;;;;;;0.00;0.00;;;25.30;41.20;;;;;;5052783;28;20222;-45
2023/12/11 10:38:43;;;;;;;0.00;0.00;;;25.30;41.20;;;;;;5053083;28;20444;-56
2023/12/11 10:41:28;;;;;;;0.00;0.00;;;25.20;41.30;;;;;;5052444;28;20648;-46
2023/12/11 10:43:59;;;;;;;0.00;0.00;;;25.20;41.30;;;;;;5052037;28;20222;-45
2023/12/11 10:46:31;;;;;;;0.00;0.00;;;25.20;41.30;;;;;;5051669;28;20191;-47
2023/12/11 10:49:02;;;;;;;0.00;0.00;;;25.10;41.50;;;;;;5053029;28;20200;-48
2023/12/11 10:51:34;;;;;;;0.00;0.00;;;25.10;41.40;;;;;;5052169;28;20199;-49
2023/12/11 10:54:05;;;;;;;0.00;0.00;;;25.10;41.50;;;;;;5051402;28;20234;-45
2023/12/11 10:56:36;;;;;;;0.00;0.00;;;25.10;41.40;;;;;;5051266;28;20211;-46
2023/12/11 10:59:07;;;;;;;0.00;0.00;;;25.10;41.40;;;;;;5050198;28;20671;-46
2023/12/11 11:01:41;;;;;;;0.00;0.00;;;25.00;41.30;;;;;;5036263;28;20203;-47
2023/12/11 11:04:13;;;;;;;0.00;0.00;;;25.00;41.30;;;;;;5033100;28;20204;-52
2023/12/11 11:06:52;;;;;;;0.00;0.00;;;25.00;41.50;;;;;;5033093;28;20197;-46
2023/12/11 11:09:31;;;;;;;0.00;0.00;;;24.90;41.50;;;;;;5033624;28;20204;-48
2023/12/11 11:12:08;;;;;;;0.00;0.00;;;25.00;41.60;;;;;;5033112;28;20207;-53
2023/12/11 11:14:48;;;;;;;0.00;0.00;;;24.90;41.60;;;;;;5032841;28;20228;-49
2023/12/11 11:17:21;;;;;;;0.00;0.00;;;24.90;41.50;;;;;;5032121;28;20258;-45
2023/12/11 11:20:15;;;;;;;0.00;0.00;;;24.80;41.50;;;;;;5032975;28;20210;-47
2023/12/11 11:22:46;;;;;;;0.00;0.00;;;24.80;41.40;;;;;;5036544;28;20255;-51
2023/12/11 11:25:36;;;;;;;0.00;0.00;;;24.80;41.40;;;;;;5049151;28;20191;-48
2023/12/11 11:28:07;;;;;;;0.00;0.00;;;24.70;41.50;;;;;;5048563;28;20223;-47
2023/12/11 11:30:53;;;;;;;0.00;0.00;;;24.70;41.60;;;;;;5045071;28;20233;-48
2023/12/11 11:33:26;;;;;;;0.00;0.00;;;24.70;41.60;;;;;;5042569;28;20251;-48
2023/12/11 11:35:59;;;;;;;0.00;0.00;;;24.70;41.80;;;;;;5042954;28;20192;-49
2023/12/11 11:38:54;;;;;;;0.00;0.00;;;24.60;41.60;;;;;;5043284;28;20257;-49
2023/12/11 11:41:29;;;;;;;0.00;0.00;;;24.60;41.60;;;;;;5042956;28;20237;-45
2023/12/11 11:44:06;;;;;;;0.00;0.00;;;24.60;41.50;;;;;;5043014;28;20619;-45
2023/12/11 11:46:52;;;;;;;0.00;0.00;;;24.50;41.40;;;;;;5043485;28;20276;-49
2023/12/11 11:49:36;;;;;;;0.00;0.00;;;24.50;41.30;;;;;;5042879;28;20188;-46
2023/12/11 11:52:09;;;;;;;0.00;0.00;;;24.50;41.30;;;;;;5047907;28;20226;-48
2023/12/11 11:54:41;;;;;;;0.00;0.00;;;24.50;41.50;;;;;;5051910;28;20223;-48
2023/12/11 11:57:11;;;;;;;0.00;0.00;;;24.50;41.60;;;;;;5039454;28;20675;-52
2023/12/11 11:59:48;;;;;;;0.00;0.00;;;24.40;41.70;;;;;;5032092;28;20196;-48
2023/12/11 12:02:25;;;;;;;0.00;0.00;;;24.40;41.70;;;;;;5031889;28;20215;-47
2023/12/11 12:04:57;;;;;;;0.00;0.00;;;24.40;41.80;;;;;;5031784;28;20196;-51
2023/12/11 12:07:28;;;;;;;0.00;0.00;;;24.40;41.70;;;;;;5031633;28;20211;-46
2023/12/11 12:09:59;;;;;;;0.00;0.00;;;24.30;41.80;;;;;;5031893;28;20204;-47
2023/12/11 12:12:30;;;;;;;0.00;0.00;;;24.30;42.00;;;;;;5031712;28;20220;-49
2023/12/11 12:15:05;;;;;;;0.00;0.00;;;24.30;42.00;;;;;;5034465;28;20224;-49
2023/12/11 12:17:36;;;;;;;0.00;0.00;;;24.30;41.80;;;;;;5031416;28;20195;-45
2023/12/11 12:20:15;;;;;;;0.00;0.00;;;24.30;41.70;;;;;;5031746;28;20204;-49
2023/12/11 12:22:59;;;;;;;0.00;0.00;;;24.30;41.70;;;;;;5035384;28;20215;-51
2023/12/11 12:25:30;;;;;;;0.00;0.00;;;24.20;41.70;;;;;;5051586;28;20217;-48
2023/12/11 12:28:07;;;;;;;0.00;0.00;;;24.20;41.90;;;;;;5037117;28;20558;-48
2023/12/11 12:30:39;;;;;;;0.00;0.00;;;24.20;41.80;;;;;;5031307;28;20283;-49
2023/12/11 12:33:12;;;;;;;0.00;0.00;;;24.20;41.90;;;;;;5030815;28;20216;-51
2023/12/11 12:35:46;;;;;;;0.00;0.00;;;24.20;41.80;;;;;;5031613;28;20200;-54
2023/12/11 12:38:18;;;;;;;0.10;0.10;;;24.20;41.80;;;;;;5032051;28;20210;-49
2023/12/11 12:40:49;;;;;;;0.10;0.10;;;24.10;41.80;;;;;;5031721;28;20200;-46
2023/12/11 12:43:20;;;;;;;0.00;0.00;;;24.10;41.80;;;;;;5031538;28;20216;-50
2023/12/11 12:45:51;;;;;;;0.00;0.00;;;24.10;41.90;;;;;;5031349;28;20227;-56
2023/12/11 12:48:31;;;;;;;0.00;0.00;;;24.00;42.00;;;;;;5035009;28;20207;-55
2023/12/11 12:51:20;;;;;;;0.00;0.00;;;24.00;42.00;;;;;;5035216;28;20686;-53
2023/12/11 12:53:52;;;;;;;0.00;0.00;;;24.00;42.00;;;;;;5047662;28;20238;-56
2023/12/11 12:56:23;;;;;;;0.00;0.00;;;24.00;42.00;;;;;;5055161;28;20245;-55
2023/12/11 12:58:55;;;;;;;0.00;0.00;;;23.90;41.90;;;;;;5055391;28;20203;-52
2023/12/11 13:01:26;;;;;;;0.00;0.00;;;23.90;42.80;;;;;;5055043;28;20199;-48
2023/12/11 13:04:02;;;;;;;0.00;0.00;;;23.90;42.10;;;;;;5054967;28;20211;-45
2023/12/11 13:06:35;;;;;;;0.00;0.00;;;23.90;42.20;;;;;;5055094;28;20551;-48
2023/12/11 13:09:08;;;;;;;0.00;0.00;;;23.80;42.10;;;;;;5055180;28;20206;-48
2023/12/11 13:11:45;;;;;;;0.00;0.00;;;23.80;42.40;;;;;;5055592;28;20522;-48
2023/12/11 13:14:18;;;;;;;0.00;0.00;;;23.80;42.50;;;;;;5055020;28;20227;-48
2023/12/11 13:16:49;;;;;;;0.00;0.00;;;23.80;42.40;;;;;;5055240;28;20203;-50